createdAt,value
2022-11-23T00:00:04.385Z,5.06
2022-11-23T00:01:04.302Z,5.06
2022-11-23T00:02:04.500Z,5.06
2022-11-23T00:03:04.299Z,5.06
2022-11-23T00:04:04.221Z,5.06
2022-11-23T00:05:04.305Z,5.06
2022-11-23T00:06:04.305Z,5.06
2022-11-23T00:07:04.357Z,5.06
2022-11-23T00:08:04.229Z,5.06
2022-11-23T00:09:04.219Z,5.06
2022-11-23T00:10:04.225Z,5.06
2022-11-23T00:11:04.304Z,5.06
2022-11-23T00:12:04.304Z,5.06
2022-11-23T00:13:04.382Z,5.06
2022-11-23T00:14:04.226Z,5.06
2022-11-23T00:15:04.303Z,5.06
2022-11-23T00:16:04.218Z,5.06
2022-11-23T00:17:04.304Z,5.06
2022-11-23T00:18:04.145Z,5.06
2022-11-23T00:19:04.145Z,5.06
2022-11-23T00:20:04.065Z,5.06
2022-11-23T00:21:03.981Z,5.06
2022-11-23T00:22:03.907Z,5.06
2022-11-23T00:23:03.911Z,5.06
2022-11-23T00:24:03.909Z,5.06
2022-11-23T00:25:03.914Z,5.06
2022-11-23T00:26:03.749Z,5.06
2022-11-23T00:27:03.579Z,5.06
2022-11-23T00:28:03.579Z,5.06
2022-11-23T00:29:03.506Z,5.06
2022-11-23T00:30:03.512Z,5.06
2022-11-23T00:31:03.508Z,5.06
2022-11-23T00:32:04.412Z,5.12
2022-11-23T00:33:04.305Z,5.06
2022-11-23T00:34:04.309Z,5.06
2022-11-23T00:35:04.226Z,5.06
2022-11-23T00:36:04.307Z,5.12
2022-11-23T00:37:04.231Z,5.06
2022-11-23T00:38:04.229Z,5.12
2022-11-23T00:39:04.089Z,5.12
2022-11-23T00:40:03.989Z,5.12
2022-11-23T00:41:03.904Z,5.12
2022-11-23T00:42:03.825Z,5.12
2022-11-23T00:43:03.822Z,5.12
2022-11-23T00:44:03.827Z,5.12
2022-11-23T00:45:03.823Z,5.12
2022-11-23T00:46:03.746Z,5.12
2022-11-23T00:47:03.745Z,5.12
2022-11-23T00:48:03.748Z,5.12
2022-11-23T00:49:03.667Z,5.12
2022-11-23T00:50:03.598Z,5.19
2022-11-23T00:51:03.714Z,5.19
2022-11-23T00:52:03.588Z,5.19
2022-11-23T00:53:03.500Z,5.12
2022-11-23T00:54:03.587Z,5.19
2022-11-23T00:55:03.591Z,5.19
2022-11-23T00:56:03.586Z,5.19
2022-11-23T00:57:03.506Z,5.19
2022-11-23T00:58:04.460Z,5.19
2022-11-23T00:59:03.503Z,5.19
2022-11-23T01:00:03.502Z,5.19
2022-11-23T01:01:03.647Z,5.19
2022-11-23T01:02:03.666Z,5.19
2022-11-23T01:03:03.577Z,5.19
2022-11-23T01:04:03.502Z,5.19
2022-11-23T01:05:03.454Z,5.19
2022-11-23T01:06:03.431Z,5.19
2022-11-23T01:07:03.667Z,5.19
2022-11-23T01:08:04.387Z,5.19
2022-11-23T01:09:04.381Z,5.19
2022-11-23T01:10:04.633Z,5.19
2022-11-23T01:11:04.336Z,5.25
2022-11-23T01:12:04.312Z,5.19
2022-11-23T01:13:04.142Z,5.19
2022-11-23T01:14:04.314Z,5.19
2022-11-23T01:15:04.307Z,5.25
2022-11-23T01:16:04.141Z,5.25
2022-11-23T01:17:04.147Z,5.25
2022-11-23T01:18:04.229Z,5.25
2022-11-23T01:19:04.233Z,5.25
2022-11-23T01:20:04.231Z,5.25
2022-11-23T01:21:04.224Z,5.25
2022-11-23T01:22:04.220Z,5.25
2022-11-23T01:23:04.300Z,5.25
2022-11-23T01:24:04.237Z,5.25
2022-11-23T01:25:04.151Z,5.25
2022-11-23T01:26:04.144Z,5.25
2022-11-23T01:27:03.977Z,5.25
2022-11-23T01:28:03.984Z,5.25
2022-11-23T01:29:03.897Z,5.25
2022-11-23T01:30:03.836Z,5.25
2022-11-23T01:31:03.744Z,5.25
2022-11-23T01:32:03.745Z,5.25
2022-11-23T01:33:03.745Z,5.25
2022-11-23T01:34:03.744Z,5.25
2022-11-23T01:35:03.583Z,5.25
2022-11-23T01:36:03.595Z,5.25
2022-11-23T01:37:03.507Z,5.25
2022-11-23T01:38:04.393Z,5.25
2022-11-23T01:39:04.305Z,5.25
2022-11-23T01:40:04.223Z,5.25
2022-11-23T01:41:04.383Z,5.25
2022-11-23T01:42:04.383Z,5.25
2022-11-23T01:43:04.218Z,5.25
2022-11-23T01:44:04.225Z,5.25
2022-11-23T01:45:04.151Z,5.25
2022-11-23T01:46:04.064Z,5.25
2022-11-23T01:47:04.144Z,5.25
2022-11-23T01:48:04.020Z,5.25
2022-11-23T01:49:04.002Z,5.25
2022-11-23T01:50:03.829Z,5.25
2022-11-23T01:51:03.818Z,5.25
2022-11-23T01:52:03.741Z,5.25
2022-11-23T01:53:03.665Z,5.25
2022-11-23T01:54:04.065Z,5.25
2022-11-23T01:55:08.399Z,5.25
2022-11-23T01:56:04.079Z,5.19
2022-11-23T01:57:03.903Z,5.19
2022-11-23T01:58:03.914Z,5.19
2022-11-23T01:59:03.904Z,5.19
2022-11-23T02:00:03.823Z,5.19
2022-11-23T02:01:03.854Z,5.19
2022-11-23T02:02:03.764Z,5.19
2022-11-23T02:03:03.674Z,5.19
2022-11-23T02:04:03.595Z,5.19
2022-11-23T02:05:03.509Z,5.19
2022-11-23T02:06:03.417Z,5.19
2022-11-23T02:07:04.430Z,5.19
2022-11-23T02:08:04.303Z,5.19
2022-11-23T02:09:03.426Z,5.19
2022-11-23T02:10:04.469Z,5.19
2022-11-23T02:11:04.296Z,5.19
2022-11-23T02:12:04.226Z,5.12
2022-11-23T02:13:04.153Z,5.12
2022-11-23T02:14:04.056Z,5.12
2022-11-23T02:15:03.981Z,5.19
2022-11-23T02:16:04.358Z,5.12
2022-11-23T02:17:04.067Z,5.12
2022-11-23T02:18:03.984Z,5.12
2022-11-23T02:19:03.900Z,5.12
2022-11-23T02:20:03.906Z,5.19
2022-11-23T02:21:03.904Z,5.19
2022-11-23T02:22:03.742Z,5.19
2022-11-23T02:23:03.829Z,5.12
2022-11-23T02:24:03.662Z,5.12
2022-11-23T02:25:03.667Z,5.12
2022-11-23T02:26:03.743Z,5.19
2022-11-23T02:27:03.748Z,5.12
2022-11-23T02:28:03.659Z,5.12
2022-11-23T02:29:03.585Z,5.12
2022-11-23T02:30:03.679Z,5.12
2022-11-23T02:31:03.668Z,5.12
2022-11-23T02:32:03.591Z,5.12
2022-11-23T02:33:03.503Z,5.12
2022-11-23T02:34:03.431Z,5.12
2022-11-23T02:35:04.466Z,5.12
2022-11-23T02:36:04.317Z,5.12
2022-11-23T02:37:04.240Z,5.12
2022-11-23T02:38:04.326Z,5.12
2022-11-23T02:39:04.312Z,5.12
2022-11-23T02:40:04.143Z,5.12
2022-11-23T02:41:04.143Z,5.12
2022-11-23T02:42:04.222Z,5.12
2022-11-23T02:43:04.134Z,5.12
2022-11-23T02:44:04.217Z,5.12
2022-11-23T02:45:04.225Z,5.12
2022-11-23T02:46:04.227Z,5.12
2022-11-23T02:47:04.187Z,5.12
2022-11-23T02:48:04.061Z,5.12
2022-11-23T02:49:03.989Z,5.12
2022-11-23T02:50:04.067Z,5.12
2022-11-23T02:51:03.982Z,5.12
2022-11-23T02:52:03.912Z,5.12
2022-11-23T02:53:03.914Z,5.12
2022-11-23T02:54:03.824Z,5.12
2022-11-23T02:55:03.822Z,5.12
2022-11-23T02:56:03.655Z,5.12
2022-11-23T02:57:03.742Z,5.12
2022-11-23T02:58:03.663Z,5.19
2022-11-23T02:59:03.664Z,5.19
2022-11-23T03:00:03.584Z,5.19
2022-11-23T03:01:03.642Z,5.19
2022-11-23T03:02:03.502Z,5.19
2022-11-23T03:03:04.475Z,5.19
2022-11-23T03:04:03.506Z,5.19
2022-11-23T03:05:04.385Z,5.19
2022-11-23T03:06:04.387Z,5.19
2022-11-23T03:07:04.435Z,5.19
2022-11-23T03:08:04.388Z,5.19
2022-11-23T03:09:04.304Z,5.19
2022-11-23T03:10:04.139Z,5.19
2022-11-23T03:11:04.221Z,5.19
2022-11-23T03:12:04.145Z,5.19
2022-11-23T03:13:04.148Z,5.19
2022-11-23T03:14:04.142Z,5.19
2022-11-23T03:15:04.306Z,5.25
2022-11-23T03:16:04.306Z,5.25
2022-11-23T03:17:04.226Z,5.25
2022-11-23T03:18:04.064Z,5.25
2022-11-23T03:19:04.072Z,5.25
2022-11-23T03:20:03.987Z,5.25
2022-11-23T03:21:03.920Z,5.25
2022-11-23T03:22:03.906Z,5.25
2022-11-23T03:23:03.733Z,5.31
2022-11-23T03:24:03.821Z,5.25
2022-11-23T03:25:03.826Z,5.31
2022-11-23T03:26:06.260Z,5.25
2022-11-23T03:27:03.985Z,5.31
2022-11-23T03:28:04.068Z,5.31
2022-11-23T03:29:03.987Z,5.31
2022-11-23T03:30:03.906Z,5.31
2022-11-23T03:31:03.988Z,5.31
2022-11-23T03:32:04.069Z,5.31
2022-11-23T03:33:03.907Z,5.31
2022-11-23T03:34:03.985Z,5.31
2022-11-23T03:35:03.911Z,5.31
2022-11-23T03:36:03.981Z,5.31
2022-11-23T03:37:03.907Z,5.31
2022-11-23T03:38:04.143Z,5.31
2022-11-23T03:39:04.239Z,5.38
2022-11-23T03:40:04.231Z,5.38
2022-11-23T03:41:04.061Z,5.38
2022-11-23T03:42:04.190Z,5.38
2022-11-23T03:43:04.067Z,5.38
2022-11-23T03:44:04.059Z,5.38
2022-11-23T03:45:04.061Z,5.38
2022-11-23T03:46:03.991Z,5.38
2022-11-23T03:47:03.993Z,5.44
2022-11-23T03:48:03.910Z,5.44
2022-11-23T03:49:03.901Z,5.44
2022-11-23T03:50:03.822Z,5.44
2022-11-23T03:51:03.900Z,5.44
2022-11-23T03:52:03.749Z,5.44
2022-11-23T03:53:03.754Z,5.50
2022-11-23T03:54:03.665Z,5.44
2022-11-23T03:55:03.666Z,5.44
2022-11-23T03:56:03.677Z,5.44
2022-11-23T03:57:03.600Z,5.50
2022-11-23T03:58:03.592Z,5.50
2022-11-23T03:59:03.510Z,5.44
2022-11-23T04:00:04.387Z,5.50
2022-11-23T04:01:03.487Z,5.50
2022-11-23T04:02:03.433Z,5.50
2022-11-23T04:03:04.388Z,5.50
2022-11-23T04:04:04.296Z,5.44
2022-11-23T04:05:04.311Z,5.44
2022-11-23T04:06:04.227Z,5.44
2022-11-23T04:07:04.372Z,5.44
2022-11-23T04:08:04.315Z,5.44
2022-11-23T04:09:04.398Z,5.38
2022-11-23T04:10:04.391Z,5.38
2022-11-23T04:11:04.305Z,5.38
2022-11-23T04:12:04.299Z,5.38
2022-11-23T04:13:04.145Z,5.38
2022-11-23T04:14:04.145Z,5.31
2022-11-23T04:15:04.219Z,5.31
2022-11-23T04:16:04.227Z,5.31
2022-11-23T04:17:04.151Z,5.31
2022-11-23T04:18:04.232Z,5.31
2022-11-23T04:19:04.145Z,5.25
2022-11-23T04:20:04.067Z,5.25
2022-11-23T04:21:04.057Z,5.25
2022-11-23T04:22:04.009Z,5.25
2022-11-23T04:23:03.982Z,5.19
2022-11-23T04:24:03.996Z,5.19
2022-11-23T04:25:03.916Z,5.19
2022-11-23T04:26:03.901Z,5.12
2022-11-23T04:27:03.906Z,5.12
2022-11-23T04:28:03.831Z,5.12
2022-11-23T04:29:03.824Z,5.06
2022-11-23T04:30:03.741Z,5.06
2022-11-23T04:31:03.827Z,5.06
2022-11-23T04:32:03.754Z,5.00
2022-11-23T04:33:03.584Z,5.00
2022-11-23T04:34:03.588Z,5.00
2022-11-23T04:35:03.499Z,4.94
2022-11-23T04:36:03.430Z,4.94
2022-11-23T04:37:06.816Z,4.94
2022-11-23T04:38:04.393Z,4.88
2022-11-23T04:39:04.354Z,4.88
2022-11-23T04:40:04.220Z,4.88
2022-11-23T04:41:04.302Z,4.81
2022-11-23T04:42:04.238Z,4.81
2022-11-23T04:43:04.147Z,4.75
2022-11-23T04:44:04.149Z,4.75
2022-11-23T04:45:04.156Z,4.75
2022-11-23T04:46:04.191Z,4.69
2022-11-23T04:47:03.986Z,4.69
2022-11-23T04:48:04.068Z,4.62
2022-11-23T04:49:03.984Z,4.62
2022-11-23T04:50:03.908Z,4.62
2022-11-23T04:51:03.907Z,4.56
2022-11-23T04:52:03.917Z,4.56
2022-11-23T04:53:03.826Z,4.56
2022-11-23T04:54:03.829Z,4.56
2022-11-23T04:55:03.664Z,4.50
2022-11-23T04:56:03.664Z,4.50
2022-11-23T04:57:03.668Z,4.50
2022-11-23T04:58:03.586Z,4.50
2022-11-23T04:59:03.588Z,4.44
2022-11-23T05:00:03.592Z,4.44
2022-11-23T05:01:03.663Z,4.44
2022-11-23T05:02:03.576Z,4.44
2022-11-23T05:03:03.514Z,4.44
2022-11-23T05:04:03.510Z,4.44
2022-11-23T05:05:04.384Z,4.38
2022-11-23T05:06:04.395Z,4.38
2022-11-23T05:07:04.343Z,4.38
2022-11-23T05:08:04.232Z,4.38
2022-11-23T05:09:04.222Z,4.38
2022-11-23T05:10:04.229Z,4.38
2022-11-23T05:11:04.222Z,4.38
2022-11-23T05:12:04.155Z,4.38
2022-11-23T05:13:04.061Z,4.38
2022-11-23T05:14:03.991Z,4.38
2022-11-23T05:15:03.990Z,4.38
2022-11-23T05:16:03.905Z,4.38
2022-11-23T05:17:03.987Z,4.31
2022-11-23T05:18:03.985Z,4.31
2022-11-23T05:19:03.830Z,4.38
2022-11-23T05:20:03.905Z,4.31
2022-11-23T05:21:03.743Z,4.31
2022-11-23T05:22:03.760Z,4.38
2022-11-23T05:23:03.758Z,4.38
2022-11-23T05:24:03.586Z,4.38
2022-11-23T05:25:03.847Z,4.31
2022-11-23T05:26:03.829Z,4.38
2022-11-23T05:27:03.674Z,4.31
2022-11-23T05:28:11.317Z,4.38
2022-11-23T05:29:03.661Z,4.31
2022-11-23T05:30:03.665Z,4.31
2022-11-23T05:31:03.584Z,4.31
2022-11-23T05:32:03.598Z,4.31
2022-11-23T05:33:03.585Z,4.31
2022-11-23T05:34:03.591Z,4.31
2022-11-23T05:35:03.506Z,4.31
2022-11-23T05:36:04.471Z,4.31
2022-11-23T05:37:04.388Z,4.31
2022-11-23T05:38:04.389Z,4.31
2022-11-23T05:39:04.304Z,4.25
2022-11-23T05:40:04.218Z,4.25
2022-11-23T05:41:04.308Z,4.25
2022-11-23T05:42:04.146Z,4.25
2022-11-23T05:43:04.232Z,4.25
2022-11-23T05:44:04.168Z,4.25
2022-11-23T05:45:07.473Z,4.25
2022-11-23T05:46:03.897Z,4.25
2022-11-23T05:47:04.070Z,4.19
2022-11-23T05:48:04.055Z,4.19
2022-11-23T05:49:03.988Z,4.19
2022-11-23T05:50:03.919Z,4.19
2022-11-23T05:51:05.554Z,4.19
2022-11-23T05:52:03.823Z,4.19
2022-11-23T05:53:03.900Z,4.12
2022-11-23T05:54:03.821Z,4.12
2022-11-23T05:55:03.907Z,4.12
2022-11-23T05:56:03.912Z,4.12
2022-11-23T05:57:03.836Z,4.12
2022-11-23T05:58:03.766Z,4.12
2022-11-23T05:59:03.677Z,4.06
2022-11-23T06:00:03.663Z,4.06
2022-11-23T06:01:03.681Z,4.06
2022-11-23T06:02:03.680Z,4.06
2022-11-23T06:03:03.677Z,4.06
2022-11-23T06:04:03.821Z,4.06
2022-11-23T06:05:03.665Z,4.06
2022-11-23T06:06:03.662Z,4.06
2022-11-23T06:07:03.666Z,4.06
2022-11-23T06:08:03.589Z,4.06
2022-11-23T06:09:03.670Z,4.06
2022-11-23T06:10:03.505Z,4.06
2022-11-23T06:11:03.499Z,4.06
2022-11-23T06:12:03.438Z,4.06
2022-11-23T06:13:03.427Z,4.06
2022-11-23T06:14:04.571Z,4.06
2022-11-23T06:15:04.394Z,4.06
2022-11-23T06:16:04.378Z,4.06
2022-11-23T06:17:04.393Z,4.06
2022-11-23T06:18:04.468Z,4.06
2022-11-23T06:19:04.389Z,4.06
2022-11-23T06:20:04.309Z,4.06
2022-11-23T06:21:04.222Z,4.12
2022-11-23T06:22:04.219Z,4.12
2022-11-23T06:23:04.304Z,4.12
2022-11-23T06:24:04.391Z,4.12
2022-11-23T06:25:04.225Z,4.12
2022-11-23T06:26:04.221Z,4.12
2022-11-23T06:27:04.147Z,4.12
2022-11-23T06:28:04.145Z,4.12
2022-11-23T06:29:04.152Z,4.12
2022-11-23T06:30:04.143Z,4.19
2022-11-23T06:31:04.072Z,4.19
2022-11-23T06:32:04.144Z,4.19
2022-11-23T06:33:04.145Z,4.19
2022-11-23T06:34:04.143Z,4.19
2022-11-23T06:35:04.143Z,4.12
2022-11-23T06:36:04.067Z,4.12
2022-11-23T06:37:04.017Z,4.19
2022-11-23T06:38:04.070Z,4.19
2022-11-23T06:39:03.990Z,4.19
2022-11-23T06:40:03.908Z,4.19
2022-11-23T06:41:03.908Z,4.19
2022-11-23T06:42:23.666Z,4.19
2022-11-23T06:43:03.903Z,4.19
2022-11-23T06:44:03.852Z,4.19
2022-11-23T06:45:03.839Z,4.19
2022-11-23T06:46:03.664Z,4.19
2022-11-23T06:47:03.664Z,4.19
2022-11-23T06:48:03.578Z,4.19
2022-11-23T06:49:03.583Z,4.19
2022-11-23T06:50:03.508Z,4.19
2022-11-23T06:51:04.382Z,4.19
2022-11-23T06:52:04.315Z,4.19
2022-11-23T06:53:04.312Z,4.19
2022-11-23T06:54:04.223Z,4.19
2022-11-23T06:55:04.272Z,4.19
2022-11-23T06:56:04.229Z,4.19
2022-11-23T06:57:04.222Z,4.19
2022-11-23T06:58:04.149Z,4.19
2022-11-23T06:59:04.151Z,4.25
2022-11-23T07:00:04.063Z,4.25
2022-11-23T07:01:03.989Z,4.25
2022-11-23T07:02:03.976Z,4.25
2022-11-23T07:03:03.904Z,4.25
2022-11-23T07:04:03.913Z,4.31
2022-11-23T07:05:03.826Z,4.31
2022-11-23T07:06:03.745Z,4.31
2022-11-23T07:07:03.670Z,4.31
2022-11-23T07:08:03.746Z,4.31
2022-11-23T07:09:03.588Z,4.31
2022-11-23T07:10:06.966Z,4.38
2022-11-23T07:11:03.828Z,4.38
2022-11-23T07:12:03.744Z,4.38
2022-11-23T07:13:03.661Z,4.38
2022-11-23T07:14:03.744Z,4.38
2022-11-23T07:15:03.708Z,4.38
2022-11-23T07:16:03.504Z,4.38
2022-11-23T07:17:03.666Z,4.44
2022-11-23T07:18:03.665Z,4.44
2022-11-23T07:19:04.221Z,4.44
2022-11-23T07:20:04.228Z,4.44
2022-11-23T07:21:04.145Z,4.44
2022-11-23T07:22:04.080Z,4.50
2022-11-23T07:23:03.907Z,4.50
2022-11-23T07:24:03.906Z,4.50
2022-11-23T07:25:03.744Z,4.50
2022-11-23T07:26:03.825Z,4.50
2022-11-23T07:27:03.751Z,4.50
2022-11-23T07:28:03.661Z,4.50
2022-11-23T07:29:03.593Z,4.44
2022-11-23T07:30:03.500Z,4.50
2022-11-23T07:31:03.424Z,4.50
2022-11-23T07:32:03.431Z,4.50
2022-11-23T07:33:03.582Z,4.50
2022-11-23T07:34:03.590Z,4.50
2022-11-23T07:35:03.659Z,4.50
2022-11-23T07:36:03.675Z,4.50
2022-11-23T07:37:03.669Z,4.50
2022-11-23T07:38:03.591Z,4.50
2022-11-23T07:39:03.503Z,4.50
2022-11-23T07:40:03.824Z,4.50
2022-11-23T07:41:03.586Z,4.50
2022-11-23T07:42:30.762Z,4.50
2022-11-23T07:43:03.506Z,4.50
2022-11-23T07:44:03.427Z,4.50
2022-11-23T07:45:03.509Z,4.50
2022-11-23T07:46:03.507Z,4.50
2022-11-23T07:47:03.531Z,4.50
2022-11-23T07:48:03.672Z,4.50
2022-11-23T07:49:03.752Z,4.50
2022-11-23T07:50:03.749Z,4.50
2022-11-23T07:51:03.826Z,4.50
2022-11-23T07:52:03.664Z,4.50
2022-11-23T07:53:03.665Z,4.56
2022-11-23T07:54:03.585Z,4.56
2022-11-23T07:55:03.586Z,4.62
2022-11-23T07:56:03.671Z,4.62
2022-11-23T07:57:03.592Z,4.62
2022-11-23T07:58:03.583Z,4.69
2022-11-23T07:59:03.582Z,4.69
2022-11-23T08:00:03.586Z,4.75
2022-11-23T08:01:03.500Z,4.75
2022-11-23T08:02:03.660Z,4.81
2022-11-23T08:03:28.373Z,4.81
2022-11-23T08:04:03.583Z,4.81
2022-11-23T08:05:03.507Z,4.88
2022-11-23T08:06:03.665Z,4.94
2022-11-23T08:07:03.902Z,4.94
2022-11-23T08:08:03.912Z,5.00
2022-11-23T08:09:03.823Z,5.00
2022-11-23T08:10:03.744Z,5.06
2022-11-23T08:11:03.663Z,5.06
2022-11-23T08:12:03.662Z,5.12
2022-11-23T08:13:03.503Z,5.12
2022-11-23T08:14:03.509Z,5.19
2022-11-23T08:15:04.384Z,5.19
2022-11-23T08:16:04.414Z,5.25
2022-11-23T08:17:04.389Z,5.25
2022-11-23T08:18:03.436Z,5.31
2022-11-23T08:19:03.507Z,5.31
2022-11-23T08:20:03.504Z,5.31
2022-11-23T08:21:03.504Z,5.38
2022-11-23T08:22:04.391Z,5.38
2022-11-23T08:23:04.385Z,5.38
2022-11-23T08:24:04.472Z,5.44
2022-11-23T08:25:03.588Z,5.44
2022-11-23T08:26:05.688Z,5.44
2022-11-23T08:27:03.668Z,5.50
2022-11-23T08:28:03.657Z,5.50
2022-11-23T08:29:03.580Z,5.56
2022-11-23T08:30:03.502Z,5.56
2022-11-23T08:31:03.506Z,5.56
2022-11-23T08:32:04.377Z,5.62
2022-11-23T08:33:04.399Z,5.75
2022-11-23T08:34:04.399Z,5.81
2022-11-23T08:35:03.507Z,5.81
2022-11-23T08:36:03.507Z,5.81
2022-11-23T08:37:04.386Z,5.88
2022-11-23T08:38:04.313Z,5.88
2022-11-23T08:39:04.307Z,5.88
2022-11-23T08:40:04.139Z,5.94
2022-11-23T08:41:04.147Z,5.94
2022-11-23T08:42:04.057Z,5.94
2022-11-23T08:43:04.139Z,6.00
2022-11-23T08:44:04.145Z,6.00
2022-11-23T08:45:04.066Z,6.00
2022-11-23T08:46:08.076Z,6.06
2022-11-23T08:47:04.143Z,6.06
2022-11-23T08:48:04.070Z,6.12
2022-11-23T08:49:03.987Z,6.12
2022-11-23T08:50:04.068Z,6.19
2022-11-23T08:51:04.142Z,6.19
2022-11-23T08:52:04.072Z,6.25
2022-11-23T08:53:03.990Z,6.25
2022-11-23T08:54:03.902Z,6.25
2022-11-23T08:55:03.821Z,6.31
2022-11-23T08:56:03.908Z,6.31
2022-11-23T08:57:03.831Z,6.38
2022-11-23T08:58:05.864Z,6.38
2022-11-23T08:59:03.825Z,6.38
2022-11-23T09:00:03.819Z,6.44
2022-11-23T09:01:03.966Z,6.44
2022-11-23T09:02:03.748Z,6.44
2022-11-23T09:03:03.665Z,6.50
2022-11-23T09:04:03.671Z,6.50
2022-11-23T09:05:03.585Z,6.50
2022-11-23T09:06:03.424Z,6.56
2022-11-23T09:07:04.543Z,6.56
2022-11-23T09:08:04.307Z,6.62
2022-11-23T09:09:04.315Z,6.62
2022-11-23T09:10:04.225Z,6.69
2022-11-23T09:11:04.298Z,6.69
2022-11-23T09:12:03.438Z,6.69
2022-11-23T09:13:04.393Z,6.75
2022-11-23T09:14:04.382Z,6.75
2022-11-23T09:15:04.304Z,6.75
2022-11-23T09:16:03.517Z,6.81
2022-11-23T09:17:04.460Z,6.81
2022-11-23T09:18:03.503Z,6.88
2022-11-23T09:19:04.394Z,6.88
2022-11-23T09:20:03.424Z,6.88
2022-11-23T09:21:04.379Z,6.94
2022-11-23T09:22:04.482Z,6.94
2022-11-23T09:23:03.425Z,6.94
2022-11-23T09:24:03.419Z,6.94
2022-11-23T09:25:03.454Z,7.00
2022-11-23T09:26:03.509Z,7.00
2022-11-23T09:27:03.514Z,7.00
2022-11-23T09:28:04.395Z,7.06
2022-11-23T09:29:03.576Z,7.06
2022-11-23T09:30:03.664Z,7.12
2022-11-23T09:31:03.592Z,7.12
2022-11-23T09:32:03.581Z,7.12
2022-11-23T09:33:03.659Z,7.19
2022-11-23T09:34:03.660Z,7.19
2022-11-23T09:35:03.685Z,7.19
2022-11-23T09:36:03.640Z,7.25
2022-11-23T09:37:03.663Z,7.25
2022-11-23T09:38:03.593Z,7.31
2022-11-23T09:39:03.689Z,7.31
2022-11-23T09:40:03.499Z,7.31
2022-11-23T09:41:03.435Z,7.38
2022-11-23T09:42:04.384Z,7.38
2022-11-23T09:43:04.392Z,7.38
2022-11-23T09:44:04.306Z,7.38
2022-11-23T09:45:04.386Z,7.44
2022-11-23T09:46:04.384Z,7.44
2022-11-23T09:47:03.418Z,7.44
2022-11-23T09:48:03.507Z,7.44
2022-11-23T09:49:04.421Z,7.44
2022-11-23T09:50:04.387Z,7.44
2022-11-23T09:51:04.399Z,7.44
2022-11-23T09:52:04.387Z,7.44
2022-11-23T09:53:04.299Z,7.44
2022-11-23T09:54:04.399Z,7.44
2022-11-23T09:55:04.302Z,7.44
2022-11-23T09:56:04.308Z,7.38
2022-11-23T09:57:04.316Z,7.44
2022-11-23T09:58:04.466Z,7.38
2022-11-23T09:59:04.391Z,7.38
2022-11-23T10:00:04.299Z,7.38
2022-11-23T10:01:04.218Z,7.38
2022-11-23T10:02:04.286Z,7.38
2022-11-23T10:03:04.064Z,7.38
2022-11-23T10:04:04.256Z,7.38
2022-11-23T10:05:04.316Z,7.44
2022-11-23T10:06:04.227Z,7.38
2022-11-23T10:07:04.369Z,7.38
2022-11-23T10:08:04.157Z,7.38
2022-11-23T10:09:04.080Z,7.38
2022-11-23T10:10:04.074Z,7.38
2022-11-23T10:11:04.179Z,7.38
2022-11-23T10:12:04.152Z,7.38
2022-11-23T10:13:04.066Z,7.38
2022-11-23T10:14:04.072Z,7.38
2022-11-23T10:15:04.153Z,7.44
2022-11-23T10:16:04.077Z,7.44
2022-11-23T10:17:04.148Z,7.44
2022-11-23T10:18:04.149Z,7.44
2022-11-23T10:19:04.137Z,7.44
2022-11-23T10:20:04.147Z,7.44
2022-11-23T10:21:03.993Z,7.50
2022-11-23T10:22:04.868Z,7.50
2022-11-23T10:23:03.820Z,7.50
2022-11-23T10:24:03.919Z,7.50
2022-11-23T10:25:03.900Z,7.50
2022-11-23T10:26:03.925Z,7.50
2022-11-23T10:27:03.901Z,7.50
2022-11-23T10:28:03.907Z,7.56
2022-11-23T10:29:03.818Z,7.56
2022-11-23T10:30:03.826Z,7.56
2022-11-23T10:31:03.816Z,7.62
2022-11-23T10:32:03.741Z,7.62
2022-11-23T10:33:03.741Z,7.69
2022-11-23T10:34:03.689Z,7.69
2022-11-23T10:35:03.664Z,7.75
2022-11-23T10:36:03.673Z,7.75
2022-11-23T10:37:03.587Z,7.81
2022-11-23T10:38:03.695Z,7.88
2022-11-23T10:39:03.664Z,7.88
2022-11-23T10:40:03.755Z,7.94
2022-11-23T10:41:03.664Z,7.94
2022-11-23T10:42:03.605Z,8.00
2022-11-23T10:43:03.749Z,8.00
2022-11-23T10:44:03.745Z,8.00
2022-11-23T10:45:03.748Z,8.06
2022-11-23T10:46:03.822Z,8.06
2022-11-23T10:47:03.820Z,8.12
2022-11-23T10:48:03.911Z,8.19
2022-11-23T10:49:03.828Z,8.19
2022-11-23T10:50:03.750Z,8.25
2022-11-23T10:51:03.752Z,8.25
2022-11-23T10:52:03.674Z,8.31
2022-11-23T10:53:03.594Z,8.31
2022-11-23T10:54:05.357Z,8.38
2022-11-23T10:55:03.609Z,8.38
2022-11-23T10:56:03.616Z,8.38
2022-11-23T10:57:03.638Z,8.44
2022-11-23T10:58:03.506Z,8.44
2022-11-23T10:59:03.510Z,8.50
2022-11-23T11:00:03.509Z,8.50
2022-11-23T11:01:03.592Z,8.50
2022-11-23T11:02:03.575Z,8.50
2022-11-23T11:03:03.497Z,8.56
2022-11-23T11:04:04.404Z,8.62
2022-11-23T11:05:04.305Z,8.62
2022-11-23T11:06:10.343Z,8.69
2022-11-23T11:07:04.473Z,8.69
2022-11-23T11:08:03.514Z,8.69
2022-11-23T11:09:03.995Z,8.69
2022-11-23T11:10:03.514Z,8.75
2022-11-23T11:11:03.508Z,8.75
2022-11-23T11:12:04.384Z,8.75
2022-11-23T11:13:03.598Z,8.81
2022-11-23T11:14:04.488Z,8.81
2022-11-23T11:15:10.665Z,8.88
2022-11-23T11:16:04.317Z,8.88
2022-11-23T11:17:04.219Z,8.88
2022-11-23T11:18:04.230Z,8.88
2022-11-23T11:19:04.175Z,8.88
2022-11-23T11:20:04.139Z,8.88
2022-11-23T11:21:04.137Z,8.88
2022-11-23T11:22:04.068Z,8.94
2022-11-23T11:23:04.080Z,8.88
2022-11-23T11:24:04.229Z,8.94
2022-11-23T11:25:04.067Z,8.88
2022-11-23T11:26:04.058Z,8.88
2022-11-23T11:27:04.057Z,8.88
2022-11-23T11:28:04.009Z,8.88
2022-11-23T11:29:03.983Z,8.88
2022-11-23T11:30:03.988Z,8.88
2022-11-23T11:31:04.014Z,8.94
2022-11-23T11:32:03.913Z,8.94
2022-11-23T11:33:04.980Z,8.94
2022-11-23T11:34:04.396Z,8.94
2022-11-23T11:35:04.073Z,8.94
2022-11-23T11:36:03.982Z,8.94
2022-11-23T11:37:04.069Z,8.94
2022-11-23T11:38:03.981Z,8.94
2022-11-23T11:39:18.594Z,8.94
2022-11-23T11:40:03.910Z,8.88
2022-11-23T11:41:03.900Z,8.88
2022-11-23T11:42:03.824Z,8.88
2022-11-23T11:43:04.119Z,8.88
2022-11-23T11:44:03.829Z,8.88
2022-11-23T11:45:03.902Z,8.88
2022-11-23T11:46:27.802Z,8.88
2022-11-23T11:47:03.824Z,8.88
2022-11-23T11:48:03.830Z,8.88
2022-11-23T11:49:03.747Z,8.88
2022-11-23T11:50:03.752Z,8.88
2022-11-23T11:51:03.671Z,8.94
2022-11-23T11:52:03.663Z,8.94
2022-11-23T11:53:03.613Z,8.94
2022-11-23T11:54:03.592Z,8.94
2022-11-23T11:55:03.778Z,8.94
2022-11-23T11:56:04.067Z,8.94
2022-11-23T11:57:04.221Z,9.00
2022-11-23T11:58:03.748Z,9.00
2022-11-23T11:59:03.737Z,9.00
2022-11-23T12:00:04.873Z,9.00
2022-11-23T12:01:03.997Z,9.00
2022-11-23T12:02:03.913Z,9.06
2022-11-23T12:03:03.893Z,9.06
2022-11-23T12:04:03.820Z,9.06
2022-11-23T12:05:03.749Z,9.06
2022-11-23T12:06:03.667Z,9.06
2022-11-23T12:07:03.667Z,9.06
2022-11-23T12:08:03.761Z,9.06
2022-11-23T12:09:03.750Z,9.12
2022-11-23T12:10:03.832Z,9.12
2022-11-23T12:11:03.744Z,9.12
2022-11-23T12:12:03.735Z,9.12
2022-11-23T12:13:03.748Z,9.19
2022-11-23T12:14:03.739Z,9.19
2022-11-23T12:15:15.236Z,9.19
2022-11-23T12:16:04.142Z,9.19
2022-11-23T12:17:31.155Z,9.25
2022-11-23T12:18:04.224Z,9.25
2022-11-23T12:19:04.155Z,9.25
2022-11-23T12:20:04.102Z,9.25
2022-11-23T12:21:04.167Z,9.25
2022-11-23T12:22:04.174Z,9.25
2022-11-23T12:23:03.899Z,9.31
2022-11-23T12:24:03.979Z,9.31
2022-11-23T12:25:04.068Z,9.31
2022-11-23T12:26:04.065Z,9.31
2022-11-23T12:27:03.902Z,9.31
2022-11-23T12:28:03.827Z,9.31
2022-11-23T12:29:03.825Z,9.31
2022-11-23T12:30:03.932Z,9.31
2022-11-23T12:31:03.838Z,9.31
2022-11-23T12:32:03.750Z,9.31
2022-11-23T12:33:03.736Z,9.38
2022-11-23T12:34:03.549Z,9.38
2022-11-23T12:35:03.591Z,9.38
2022-11-23T12:36:03.502Z,9.38
2022-11-23T12:37:03.604Z,9.38
2022-11-23T12:38:03.420Z,9.38
2022-11-23T12:39:04.389Z,9.38
2022-11-23T12:40:04.390Z,9.38
2022-11-23T12:41:03.831Z,9.38
2022-11-23T12:42:03.992Z,9.38
2022-11-23T12:43:03.985Z,9.38
2022-11-23T12:44:03.991Z,9.44
2022-11-23T12:45:03.910Z,9.44
2022-11-23T12:46:09.075Z,9.44
2022-11-23T12:47:03.909Z,9.44
2022-11-23T12:48:03.827Z,9.44
2022-11-23T12:49:03.824Z,9.44
2022-11-23T12:50:03.820Z,9.44
2022-11-23T12:51:03.671Z,9.44
2022-11-23T12:52:03.580Z,9.44
2022-11-23T12:53:03.691Z,9.44
2022-11-23T12:54:03.564Z,9.44
2022-11-23T12:55:03.442Z,9.44
2022-11-23T12:56:03.417Z,9.44
2022-11-23T12:57:04.396Z,9.44
2022-11-23T12:58:04.388Z,9.44
2022-11-23T12:59:04.313Z,9.44
2022-11-23T13:00:04.224Z,9.44
2022-11-23T13:01:04.250Z,9.44
2022-11-23T13:02:04.369Z,9.44
2022-11-23T13:03:04.429Z,9.44
2022-11-23T13:04:04.237Z,9.44
2022-11-23T13:05:03.511Z,9.44
2022-11-23T13:06:03.503Z,9.44
2022-11-23T13:07:27.290Z,9.44
2022-11-23T13:08:03.988Z,9.44
2022-11-23T13:09:03.826Z,9.44
2022-11-23T13:10:04.190Z,9.44
2022-11-23T13:11:04.069Z,9.44
2022-11-23T13:12:04.005Z,9.38
2022-11-23T13:13:03.910Z,9.38
2022-11-23T13:14:03.908Z,9.38
2022-11-23T13:15:03.755Z,9.38
2022-11-23T13:16:03.771Z,9.38
2022-11-23T13:17:03.881Z,9.38
2022-11-23T13:18:03.830Z,9.38